Time;durP1;ratioP1;P1;durP2;ratioP2;P2;SDS_P1;SDS_P2;PMS_P1;PMS_P2;Temp;Humidity;BMP_temperature;BMP_pressure;BME280_temperature;BME280_humidity;BME280_pressure;Samples;Min_cycle;Max_cycle;Signal;HPM_P1;HPM_P2
2022/12/23 00:03:34;;;;;;;;;;;;;;;7.13;100;100381.4;;;;-74
2022/12/23 00:08:34;;;;;;;;;;;;;;;7.12;100;100393.8;;;;-74
2022/12/23 00:18:35;;;;;;;;;;;;;;;7.14;100;100396;;;;-79
2022/12/23 00:23:08;;;;;;;12.4;4;;;;;;;;;;;;;-79
2022/12/23 00:23:34;;;;;;;;;;;;;;;7.15;100;100408.7;;;;-79
2022/12/23 00:28:34;;;;;;;;;;;;;;;7.18;100;100410.3;;;;-80
2022/12/23 00:33:35;;;;;;;;;;;;;;;7.2;100;100411.1;;;;-79
2022/12/23 00:43:33;;;;;;;;;;;;;;;7.25;100;100424.4;;;;-79
2022/12/23 00:52:53;;;;;;;11.5;5.3;;;;;;;;;;;;;-79
2022/12/23 00:53:34;;;;;;;;;;;;;;;7.26;100;100422.3;;;;-80
2022/12/23 00:58:34;;;;;;;;;;;;;;;7.26;100;100431.5;;;;-79
2022/12/23 01:08:34;;;;;;;;;;;;;;;7.23;100;100432.7;;;;-78
2022/12/23 01:13:34;;;;;;;;;;;;;;;7.23;100;100432.6;;;;-80
2022/12/23 01:18:34;;;;;;;;;;;;;;;7.22;100;100434.7;;;;-79
2022/12/23 01:22:53;;;;;;;13;6.8;;;;;;;;;;;;;-78
2022/12/23 01:23:34;;;;;;;;;;;;;;;7.22;100;100439.8;;;;-79
2022/12/23 01:28:34;;;;;;;;;;;;;;;7.21;100;100451;;;;-74
2022/12/23 01:33:34;;;;;;;;;;;;;;;7.22;100;100459.3;;;;-74
2022/12/23 01:38:34;;;;;;;;;;;;;;;7.22;100;100465.1;;;;-75
2022/12/23 01:43:48;;;;;;;;;;;;;;;7.23;100;100473;;;;-75
2022/12/23 01:48:34;;;;;;;;;;;;;;;7.22;100;100482.4;;;;-75
2022/12/23 01:52:57;;;;;;;17.4;8.5;;;;;;;;;;;;;-74
2022/12/23 01:53:35;;;;;;;;;;;;;;;7.22;100;100496.2;;;;-74
2022/12/23 01:58:36;;;;;;;;;;;;;;;7.23;100;100508.7;;;;-74
2022/12/23 02:03:45;;;;;;;;;;;;;;;7.21;100;100513.1;;;;-74
2022/12/23 02:13:38;;;;;;;;;;;;;;;7.18;100;100525.9;;;;-74
2022/12/23 02:18:44;;;;;;;;;;;;;;;7.17;100;100536.7;;;;-76
2022/12/23 02:23:09;;;;;;;23.2;9.2;;;;;;;;;;;;;-74
2022/12/23 02:23:49;;;;;;;;;;;;;;;7.16;100;100541.1;;;;-74
2022/12/23 02:28:46;;;;;;;;;;;;;;;7.14;100;100541.7;;;;-79
2022/12/23 02:33:42;;;;;;;;;;;;;;;7.13;100;100547.2;;;;-79
2022/12/23 02:38:37;;;;;;;;;;;;;;;7.11;100;100554.4;;;;-74
2022/12/23 02:43:39;;;;;;;;;;;;;;;7.1;100;100562.2;;;;-79
2022/12/23 02:48:37;;;;;;;;;;;;;;;7.08;100;100567.1;;;;-79
2022/12/23 02:52:56;;;;;;;25.2;8.2;;;;;;;;;;;;;-79
2022/12/23 02:53:36;;;;;;;;;;;;;;;7.07;100;100572.6;;;;-80
2022/12/23 02:58:35;;;;;;;;;;;;;;;7.06;100;100580.9;;;;-80
2022/12/23 03:03:34;;;;;;;;;;;;;;;7.05;100;100583.6;;;;-79
2022/12/23 03:08:36;;;;;;;;;;;;;;;7.03;100;100576;;;;-80
2022/12/23 03:13:37;;;;;;;;;;;;;;;7.02;100;100572.6;;;;-79
2022/12/23 03:18:36;;;;;;;;;;;;;;;7.01;100;100574.3;;;;-80
2022/12/23 03:22:59;;;;;;;23.4;7.5;;;;;;;;;;;;;-79
2022/12/23 03:23:37;;;;;;;;;;;;;;;7;100;100575.6;;;;-79
2022/12/23 03:28:36;;;;;;;;;;;;;;;6.99;100;100578.8;;;;-80
2022/12/23 03:33:36;;;;;;;;;;;;;;;6.98;100;100580.4;;;;-79
2022/12/23 03:38:35;;;;;;;;;;;;;;;6.96;100;100577.6;;;;-79
2022/12/23 03:43:38;;;;;;;;;;;;;;;6.96;100;100581.6;;;;-79
2022/12/23 03:48:36;;;;;;;;;;;;;;;6.95;100;100577.5;;;;-79
2022/12/23 03:52:59;;;;;;;23.5;7.3;;;;;;;;;;;;;-78
2022/12/23 03:53:36;;;;;;;;;;;;;;;6.94;100;100586.6;;;;-79
2022/12/23 03:58:37;;;;;;;;;;;;;;;6.94;100;100595.5;;;;-80
2022/12/23 04:03:36;;;;;;;;;;;;;;;6.93;100;100601;;;;-80
2022/12/23 04:08:35;;;;;;;;;;;;;;;6.93;100;100615.6;;;;-78
2022/12/23 04:13:34;;;;;;;;;;;;;;;6.92;100;100616.2;;;;-78
2022/12/23 04:18:35;;;;;;;;;;;;;;;6.92;100;100626.5;;;;-79
2022/12/23 04:22:57;;;;;;;22.7;7.4;;;;;;;;;;;;;-79
2022/12/23 04:23:34;;;;;;;;;;;;;;;6.92;100;100631.1;;;;-80
2022/12/23 04:28:33;;;;;;;;;;;;;;;6.92;100;100638.9;;;;-79
2022/12/23 04:33:34;;;;;;;;;;;;;;;6.92;100;100643.1;;;;-79
2022/12/23 04:38:34;;;;;;;;;;;;;;;6.91;100;100632.7;;;;-74
2022/12/23 04:43:34;;;;;;;;;;;;;;;6.91;100;100628.3;;;;-74
2022/12/23 04:48:38;;;;;;;;;;;;;;;6.91;100;100620.7;;;;-74
2022/12/23 04:52:57;;;;;;;21;6.8;;;;;;;;;;;;;-75
2022/12/23 04:53:34;;;;;;;;;;;;;;;6.9;100;100616;;;;-74
2022/12/23 04:58:33;;;;;;;;;;;;;;;6.91;100;100610.6;;;;-73
2022/12/23 05:03:34;;;;;;;;;;;;;;;6.91;100;100609.3;;;;-74
2022/12/23 05:08:34;;;;;;;;;;;;;;;6.9;100;100606.4;;;;-75
2022/12/23 05:13:34;;;;;;;;;;;;;;;6.9;100;100612.6;;;;-75
2022/12/23 05:18:34;;;;;;;;;;;;;;;6.9;100;100613.3;;;;-75
2022/12/23 05:22:57;;;;;;;21.3;7;;;;;;;;;;;;;-74
2022/12/23 05:23:34;;;;;;;;;;;;;;;6.9;100;100620.8;;;;-74
2022/12/23 05:28:34;;;;;;;;;;;;;;;6.9;100;100627;;;;-75
2022/12/23 05:33:34;;;;;;;;;;;;;;;6.89;100;100636.3;;;;-75
2022/12/23 05:38:33;;;;;;;;;;;;;;;6.88;100;100640.1;;;;-73
2022/12/23 05:43:34;;;;;;;;;;;;;;;6.88;100;100644.4;;;;-74
2022/12/23 05:48:34;;;;;;;;;;;;;;;6.87;100;100639.3;;;;-73
2022/12/23 05:52:58;;;;;;;20.7;6;;;;;;;;;;;;;-74
2022/12/23 05:53:34;;;;;;;;;;;;;;;6.87;100;100638.1;;;;-74
2022/12/23 05:58:33;;;;;;;;;;;;;;;6.86;100;100635.8;;;;-72
2022/12/23 06:03:34;;;;;;;;;;;;;;;6.86;100;100640.2;;;;-73
2022/12/23 06:08:34;;;;;;;;;;;;;;;6.85;100;100631.8;;;;-74
2022/12/23 06:13:33;;;;;;;;;;;;;;;6.85;100;100632.8;;;;-74
2022/12/23 06:18:34;;;;;;;;;;;;;;;6.85;100;100634.4;;;;-74
2022/12/23 06:22:59;;;;;;;17.2;5.7;;;;;;;;;;;;;-75
2022/12/23 06:23:34;;;;;;;;;;;;;;;6.85;100;100634.5;;;;-75
2022/12/23 06:28:34;;;;;;;;;;;;;;;6.84;100;100628.7;;;;-73
2022/12/23 06:33:33;;;;;;;;;;;;;;;6.84;100;100629.5;;;;-74
2022/12/23 06:38:34;;;;;;;;;;;;;;;6.83;100;100633.2;;;;-73
2022/12/23 06:43:33;;;;;;;;;;;;;;;6.84;100;100638;;;;-74
2022/12/23 06:48:34;;;;;;;;;;;;;;;6.84;100;100654.9;;;;-75
2022/12/23 06:52:59;;;;;;;17.8;5.7;;;;;;;;;;;;;-74
2022/12/23 06:53:34;;;;;;;;;;;;;;;6.83;100;100653.5;;;;-75
2022/12/23 06:58:34;;;;;;;;;;;;;;;6.82;100;100646.2;;;;-75
2022/12/23 07:03:33;;;;;;;;;;;;;;;6.82;100;100649.3;;;;-78
2022/12/23 07:08:34;;;;;;;;;;;;;;;6.82;100;100651.6;;;;-80
2022/12/23 07:13:34;;;;;;;;;;;;;;;6.82;100;100657.8;;;;-78
2022/12/23 07:18:34;;;;;;;;;;;;;;;6.81;100;100654;;;;-79
2022/12/23 07:23:00;;;;;;;14.7;5.1;;;;;;;;;;;;;-79
2022/12/23 07:23:34;;;;;;;;;;;;;;;6.81;100;100659.5;;;;-79
2022/12/23 07:28:34;;;;;;;;;;;;;;;6.81;100;100664.7;;;;-80
2022/12/23 07:33:34;;;;;;;;;;;;;;;6.81;100;100670.4;;;;-80
2022/12/23 07:38:34;;;;;;;;;;;;;;;6.81;100;100675.5;;;;-80
2022/12/23 07:43:33;;;;;;;;;;;;;;;6.8;100;100662.2;;;;-79
2022/12/23 07:48:34;;;;;;;;;;;;;;;6.79;100;100652.3;;;;-78
2022/12/23 07:53:00;;;;;;;15.6;5.2;;;;;;;;;;;;;-78
2022/12/23 07:53:34;;;;;;;;;;;;;;;6.79;100;100644.8;;;;-78
2022/12/23 07:58:34;;;;;;;;;;;;;;;6.79;100;100644.8;;;;-77
2022/12/23 08:03:34;;;;;;;;;;;;;;;6.79;100;100638.9;;;;-77
2022/12/23 08:08:34;;;;;;;;;;;;;;;6.79;100;100640;;;;-74
2022/12/23 08:13:34;;;;;;;;;;;;;;;6.78;100;100629.6;;;;-74
2022/12/23 08:18:37;;;;;;;;;;;;;;;6.79;100;100628.8;;;;-73
2022/12/23 08:23:00;;;;;;;12.8;4.6;;;;;;;;;;;;;-74
2022/12/23 08:23:35;;;;;;;;;;;;;;;6.78;100;100618.4;;;;-74
2022/12/23 08:28:34;;;;;;;;;;;;;;;6.79;100;100630.5;;;;-74
2022/12/23 08:33:35;;;;;;;;;;;;;;;6.79;100;100612.5;;;;-74
2022/12/23 08:38:34;;;;;;;;;;;;;;;6.8;100;100622.2;;;;-73
2022/12/23 08:43:34;;;;;;;;;;;;;;;6.81;100;100612.1;;;;-74
2022/12/23 08:48:34;;;;;;;;;;;;;;;6.81;100;100601.1;;;;-73
2022/12/23 08:53:00;;;;;;;12.3;4.4;;;;;;;;;;;;;-74
2022/12/23 08:53:34;;;;;;;;;;;;;;;6.82;100;100597.2;;;;-73
2022/12/23 08:58:39;;;;;;;;;;;;;;;6.83;100;100591.5;;;;-74
2022/12/23 09:03:34;;;;;;;;;;;;;;;6.82;100;100591.6;;;;-75
2022/12/23 09:08:34;;;;;;;;;;;;;;;6.83;100;100587.5;;;;-74
2022/12/23 09:13:34;;;;;;;;;;;;;;;6.82;100;100575.1;;;;-75
2022/12/23 09:18:33;;;;;;;;;;;;;;;6.82;100;100569.4;;;;-75
2022/12/23 09:23:02;;;;;;;11.4;4;;;;;;;;;;;;;-75
2022/12/23 09:23:33;;;;;;;;;;;;;;;6.83;100;100568.6;;;;-75
2022/12/23 09:28:35;;;;;;;;;;;;;;;6.83;100;100571;;;;-75
2022/12/23 09:33:33;;;;;;;;;;;;;;;6.84;100;100570.5;;;;-75
2022/12/23 09:38:34;;;;;;;;;;;;;;;6.84;100;100563.8;;;;-75
2022/12/23 09:43:37;;;;;;;;;;;;;;;6.83;100;100561;;;;-74
2022/12/23 09:48:36;;;;;;;;;;;;;;;6.84;100;100548.3;;;;-73
2022/12/23 09:53:03;;;;;;;13.1;4.5;;;;;;;;;;;;;-74
2022/12/23 09:53:39;;;;;;;;;;;;;;;6.85;100;100546.4;;;;-74
2022/12/23 09:58:38;;;;;;;;;;;;;;;6.86;100;100535;;;;-73
2022/12/23 10:03:38;;;;;;;;;;;;;;;6.86;100;100523.6;;;;-74
2022/12/23 10:08:39;;;;;;;;;;;;;;;6.89;100;100520.6;;;;-74
2022/12/23 10:13:36;;;;;;;;;;;;;;;6.91;100;100507.7;;;;-74
2022/12/23 10:18:38;;;;;;;;;;;;;;;6.94;100;100514.7;;;;-75
2022/12/23 10:23:01;;;;;;;16.3;4.8;;;;;;;;;;;;;-74
2022/12/23 10:23:36;;;;;;;;;;;;;;;6.96;100;100496.8;;;;-77
2022/12/23 10:28:33;;;;;;;;;;;;;;;6.98;100;100496.2;;;;-74
2022/12/23 10:33:39;;;;;;;;;;;;;;;7;100;100483.8;;;;-73
2022/12/23 10:38:44;;;;;;;;;;;;;;;7.03;100;100478.4;;;;-74
2022/12/23 10:43:36;;;;;;;;;;;;;;;7.04;100;100469.7;;;;-74
2022/12/23 10:48:40;;;;;;;;;;;;;;;7.07;100;100463.6;;;;-74
2022/12/23 10:53:02;;;;;;;15.2;5;;;;;;;;;;;;;-74
2022/12/23 10:53:36;;;;;;;;;;;;;;;7.09;100;100460.3;;;;-74
2022/12/23 10:58:34;;;;;;;;;;;;;;;7.11;100;100462.4;;;;-74
2022/12/23 11:03:35;;;;;;;;;;;;;;;7.13;100;100453.5;;;;-78
2022/12/23 11:08:34;;;;;;;;;;;;;;;7.14;100;100441.2;;;;-78
2022/12/23 11:13:40;;;;;;;;;;;;;;;7.15;100;100430.3;;;;-79
2022/12/23 11:18:33;;;;;;;;;;;;;;;7.15;100;100425.4;;;;-79
2022/12/23 11:23:02;;;;;;;12.7;4.9;;;;;;;;;;;;;-79
2022/12/23 11:23:34;;;;;;;;;;;;;;;7.15;100;100408.3;;;;-79
2022/12/23 11:28:34;;;;;;;;;;;;;;;7.16;100;100395.4;;;;-79
2022/12/23 11:33:35;;;;;;;;;;;;;;;7.16;100;100385.5;;;;-80
2022/12/23 11:38:34;;;;;;;;;;;;;;;7.17;100;100380.4;;;;-79
2022/12/23 11:43:34;;;;;;;;;;;;;;;7.16;100;100371.1;;;;-75
2022/12/23 11:48:33;;;;;;;;;;;;;;;7.16;100;100359.8;;;;-75
2022/12/23 11:53:04;;;;;;;15.2;5;;;;;;;;;;;;;-75
2022/12/23 11:53:35;;;;;;;;;;;;;;;7.17;100;100348.4;;;;-75
2022/12/23 11:58:38;;;;;;;;;;;;;;;7.16;100;100326.9;;;;-75
2022/12/23 12:03:36;;;;;;;;;;;;;;;7.18;100;100322.9;;;;-75
2022/12/23 12:08:36;;;;;;;;;;;;;;;7.19;100;100308.7;;;;-74
2022/12/23 12:13:38;;;;;;;;;;;;;;;7.22;100;100303.2;;;;-75
2022/12/23 12:18:35;;;;;;;;;;;;;;;7.23;100;100293.5;;;;-76
2022/12/23 12:23:05;;;;;;;14.2;4.8;;;;;;;;;;;;;-75
2022/12/23 12:23:40;;;;;;;;;;;;;;;7.26;100;100286.3;;;;-76
2022/12/23 12:28:37;;;;;;;;;;;;;;;7.28;100;100275.6;;;;-75
2022/12/23 12:33:36;;;;;;;;;;;;;;;7.29;100;100263.9;;;;-75
2022/12/23 12:38:35;;;;;;;;;;;;;;;7.3;100;100254.1;;;;-77
2022/12/23 12:43:34;;;;;;;;;;;;;;;7.31;100;100246.3;;;;-74
2022/12/23 12:48:43;;;;;;;;;;;;;;;7.33;100;100241.2;;;;-74
2022/12/23 12:53:06;;;;;;;11.8;4.2;;;;;;;;;;;;;-75
2022/12/23 12:53:40;;;;;;;;;;;;;;;7.34;100;100228.1;;;;-75
2022/12/23 12:58:33;;;;;;;;;;;;;;;7.35;100;100219.8;;;;-75
2022/12/23 13:03:47;;;;;;;;;;;;;;;7.36;100;100213.5;;;;-74
2022/12/23 13:08:44;;;;;;;;;;;;;;;7.39;100;100211.9;;;;-73
2022/12/23 13:13:41;;;;;;;;;;;;;;;7.41;100;100209.8;;;;-75
2022/12/23 13:18:39;;;;;;;;;;;;;;;7.42;100;100207.3;;;;-76
2022/12/23 13:23:05;;;;;;;10.6;3.7;;;;;;;;;;;;;-76
2022/12/23 13:23:37;;;;;;;;;;;;;;;7.43;100;100199;;;;-76
2022/12/23 13:28:47;;;;;;;;;;;;;;;7.44;100;100196;;;;-76
2022/12/23 13:33:38;;;;;;;;;;;;;;;7.45;100;100184;;;;-76
2022/12/23 13:38:48;;;;;;;;;;;;;;;7.46;100;100180;;;;-76
2022/12/23 13:43:39;;;;;;;;;;;;;;;7.49;100;100171.7;;;;-76
2022/12/23 13:48:41;;;;;;;;;;;;;;;7.5;100;100163.4;;;;-75
2022/12/23 13:53:11;;;;;;;8.5;3.3;;;;;;;;;;;;;-74
2022/12/23 13:53:42;;;;;;;;;;;;;;;7.53;100;100162.9;;;;-75
2022/12/23 13:58:34;;;;;;;;;;;;;;;7.56;100;100157.1;;;;-75
2022/12/23 14:03:40;;;;;;;;;;;;;;;7.58;100;100153.3;;;;-76
2022/12/23 14:08:47;;;;;;;;;;;;;;;7.59;100;100147.7;;;;-78
2022/12/23 14:13:36;;;;;;;;;;;;;;;7.61;100;100136.3;;;;-76
2022/12/23 14:18:45;;;;;;;;;;;;;;;7.63;100;100123.3;;;;-76
2022/12/23 14:23:10;;;;;;;7.9;3.3;;;;;;;;;;;;;-75
2022/12/23 14:23:45;;;;;;;;;;;;;;;7.64;100;100110.9;;;;-76
2022/12/23 14:28:40;;;;;;;;;;;;;;;7.65;100;100110.8;;;;-76
2022/12/23 14:33:39;;;;;;;;;;;;;;;7.62;100;100104;;;;-75
2022/12/23 14:38:35;;;;;;;;;;;;;;;7.63;100;100090.2;;;;-75
2022/12/23 14:43:51;;;;;;;;;;;;;;;7.64;100;100093.8;;;;-76
2022/12/23 14:48:45;;;;;;;;;;;;;;;7.64;100;100099.5;;;;-76
2022/12/23 14:53:06;;;;;;;8;3.3;;;;;;;;;;;;;-76
2022/12/23 14:53:36;;;;;;;;;;;;;;;7.64;100;100097;;;;-76
2022/12/23 14:58:53;;;;;;;;;;;;;;;7.64;100;100088.8;;;;-75
2022/12/23 15:03:35;;;;;;;;;;;;;;;7.64;100;100109.2;;;;-75
2022/12/23 15:08:35;;;;;;;;;;;;;;;7.64;100;100115.4;;;;-75
2022/12/23 15:13:34;;;;;;;;;;;;;;;7.64;100;100111.6;;;;-74
2022/12/23 15:18:35;;;;;;;;;;;;;;;7.64;100;100102.3;;;;-75
2022/12/23 15:23:11;;;;;;;7.9;3.3;;;;;;;;;;;;;-82
2022/12/23 15:23:35;;;;;;;;;;;;;;;7.64;100;100105.3;;;;-81
2022/12/23 15:28:39;;;;;;;;;;;;;;;7.64;100;100108;;;;-74
2022/12/23 15:33:35;;;;;;;;;;;;;;;7.64;100;100097.8;;;;-75
2022/12/23 15:38:40;;;;;;;;;;;;;;;7.65;100;100102.3;;;;-75
2022/12/23 15:43:34;;;;;;;;;;;;;;;7.64;100;100111.7;;;;-75
2022/12/23 15:48:36;;;;;;;;;;;;;;;7.64;100;100120;;;;-75
2022/12/23 15:53:09;;;;;;;8.4;3.8;;;;;;;;;;;;;-75
2022/12/23 15:53:37;;;;;;;;;;;;;;;7.62;100;100115.5;;;;-74
2022/12/23 15:58:41;;;;;;;;;;;;;;;7.61;100;100105.5;;;;-76
2022/12/23 16:03:35;;;;;;;;;;;;;;;7.59;100;100106;;;;-75
2022/12/23 16:08:36;;;;;;;;;;;;;;;7.59;100;100110.4;;;;-75
2022/12/23 16:13:36;;;;;;;;;;;;;;;7.57;100;100107.9;;;;-75
2022/12/23 16:18:35;;;;;;;;;;;;;;;7.56;100;100103.5;;;;-75
2022/12/23 16:23:07;;;;;;;13.2;5;;;;;;;;;;;;;-74
2022/12/23 16:23:36;;;;;;;;;;;;;;;7.55;100;100101.6;;;;-75
2022/12/23 16:28:47;;;;;;;;;;;;;;;7.54;100;100107.2;;;;-74
2022/12/23 16:33:38;;;;;;;;;;;;;;;7.54;100;100102.8;;;;-75
2022/12/23 16:38:34;;;;;;;;;;;;;;;7.53;100;100103.4;;;;-76
2022/12/23 16:43:35;;;;;;;;;;;;;;;7.53;100;100102.8;;;;-75
2022/12/23 16:48:35;;;;;;;;;;;;;;;7.51;100;100110.5;;;;-75
2022/12/23 16:53:10;;;;;;;11.6;5.2;;;;;;;;;;;;;-76
2022/12/23 16:53:36;;;;;;;;;;;;;;;7.5;100;100112.9;;;;-75
2022/12/23 16:58:33;;;;;;;;;;;;;;;7.5;100;100104.1;;;;-76
2022/12/23 17:03:34;;;;;;;;;;;;;;;7.5;100;100113.7;;;;-76
2022/12/23 17:08:40;;;;;;;;;;;;;;;7.5;100;100108.7;;;;-76
2022/12/23 17:13:34;;;;;;;;;;;;;;;7.5;100;100104.8;;;;-76
2022/12/23 17:18:35;;;;;;;;;;;;;;;7.5;100;100111.1;;;;-76
2022/12/23 17:23:09;;;;;;;11.2;5.1;;;;;;;;;;;;;-76
2022/12/23 17:23:35;;;;;;;;;;;;;;;7.49;100;100115.7;;;;-75
2022/12/23 17:28:35;;;;;;;;;;;;;;;7.49;100;100114.1;;;;-76
2022/12/23 17:33:34;;;;;;;;;;;;;;;7.5;100;100107;;;;-76
2022/12/23 17:38:34;;;;;;;;;;;;;;;7.5;100;100113.8;;;;-76
2022/12/23 17:43:34;;;;;;;;;;;;;;;7.5;100;100112.7;;;;-76
2022/12/23 17:48:40;;;;;;;;;;;;;;;7.48;100;100114.1;;;;-76
2022/12/23 17:53:11;;;;;;;10.5;4.7;;;;;;;;;;;;;-75
2022/12/23 17:53:33;;;;;;;;;;;;;;;7.47;100;100109.6;;;;-75
2022/12/23 17:58:33;;;;;;;;;;;;;;;7.45;100;100109.5;;;;-75
2022/12/23 18:03:34;;;;;;;;;;;;;;;7.43;100;100107.8;;;;-75
2022/12/23 18:08:34;;;;;;;;;;;;;;;7.41;100;100112.1;;;;-75
2022/12/23 18:13:36;;;;;;;;;;;;;;;7.39;100;100105.9;;;;-75
2022/12/23 18:18:34;;;;;;;;;;;;;;;7.38;100;100108.2;;;;-76
2022/12/23 18:23:09;;;;;;;6.7;3.3;;;;;;;;;;;;;-76
2022/12/23 18:23:35;;;;;;;;;;;;;;;7.37;100;100105.5;;;;-76
2022/12/23 18:28:33;;;;;;;;;;;;;;;7.35;100;100107;;;;-74
2022/12/23 18:33:35;;;;;;;;;;;;;;;7.32;100;100111.3;;;;-75
2022/12/23 18:38:33;;;;;;;;;;;;;;;7.32;100;100118.4;;;;-75
2022/12/23 18:43:35;;;;;;;;;;;;;;;7.31;100;100114.8;;;;-75
2022/12/23 18:48:34;;;;;;;;;;;;;;;7.3;100;100115.3;;;;-74
2022/12/23 18:53:10;;;;;;;5.9;2.3;;;;;;;;;;;;;-75
2022/12/23 18:53:33;;;;;;;;;;;;;;;7.3;100;100124.8;;;;-75
2022/12/23 18:58:33;;;;;;;;;;;;;;;7.3;100;100118.3;;;;-75
2022/12/23 19:03:34;;;;;;;;;;;;;;;7.29;100;100122.9;;;;-75
2022/12/23 19:08:33;;;;;;;;;;;;;;;7.29;100;100116.7;;;;-75
2022/12/23 19:13:34;;;;;;;;;;;;;;;7.3;100;100111.4;;;;-77
2022/12/23 19:18:33;;;;;;;;;;;;;;;7.31;100;100115.9;;;;-76
2022/12/23 19:23:12;;;;;;;5.5;2.6;;;;;;;;;;;;;-75
2022/12/23 19:23:34;;;;;;;;;;;;;;;7.36;100;100123.6;;;;-75
2022/12/23 19:28:33;;;;;;;;;;;;;;;7.51;100;100126.4;;;;-75
2022/12/23 19:33:33;;;;;;;;;;;;;;;7.63;100;100133.2;;;;-75
2022/12/23 19:38:35;;;;;;;;;;;;;;;7.71;100;100144.8;;;;-76
2022/12/23 19:43:33;;;;;;;;;;;;;;;7.8;100;100140;;;;-76
2022/12/23 19:48:33;;;;;;;;;;;;;;;7.84;100;100139;;;;-76
2022/12/23 19:53:10;;;;;;;8;2.1;;;;;;;;;;;;;-75
2022/12/23 19:53:33;;;;;;;;;;;;;;;7.87;100;100142.6;;;;-76
2022/12/23 19:58:36;;;;;;;;;;;;;;;7.91;100;100154.4;;;;-76
2022/12/23 20:03:36;;;;;;;;;;;;;;;7.94;100;100163.1;;;;-76
2022/12/23 20:08:34;;;;;;;;;;;;;;;8;100;100168.8;;;;-76
2022/12/23 20:13:33;;;;;;;;;;;;;;;8.04;100;100171.4;;;;-76
2022/12/23 20:18:34;;;;;;;;;;;;;;;8.03;100;100178.3;;;;-76
2022/12/23 20:23:12;;;;;;;11.5;2.1;;;;;;;;;;;;;-75
2022/12/23 20:23:34;;;;;;;;;;;;;;;8.07;100;100184.4;;;;-75
2022/12/23 20:28:34;;;;;;;;;;;;;;;8.06;100;100188.9;;;;-75
2022/12/23 20:33:33;;;;;;;;;;;;;;;8.09;100;100203.9;;;;-75
2022/12/23 20:38:33;;;;;;;;;;;;;;;8.11;100;100209.6;;;;-75
2022/12/23 20:43:33;;;;;;;;;;;;;;;8.12;100;100212.9;;;;-74
2022/12/23 20:48:34;;;;;;;;;;;;;;;8.13;100;100221;;;;-75
2022/12/23 20:53:11;;;;;;;12.8;2.4;;;;;;;;;;;;;-75
2022/12/23 20:53:34;;;;;;;;;;;;;;;8.14;100;100234.2;;;;-74
2022/12/23 21:03:33;;;;;;;;;;;;;;;8.21;100;100252.9;;;;-74
2022/12/23 21:08:33;;;;;;;;;;;;;;;8.28;100;100256.3;;;;-74
2022/12/23 21:13:35;;;;;;;;;;;;;;;8.28;100;100256.7;;;;-75
2022/12/23 21:18:34;;;;;;;;;;;;;;;8.29;100;100264.4;;;;-75
2022/12/23 21:23:12;;;;;;;9.5;2.2;;;;;;;;;;;;;-74
2022/12/23 21:23:33;;;;;;;;;;;;;;;8.28;100;100274.7;;;;-74
2022/12/23 21:28:33;;;;;;;;;;;;;;;8.3;100;100281.9;;;;-75
2022/12/23 21:33:33;;;;;;;;;;;;;;;8.28;100;100292.8;;;;-75
2022/12/23 21:38:34;;;;;;;;;;;;;;;8.27;100;100312.9;;;;-75
2022/12/23 21:43:33;;;;;;;;;;;;;;;8.28;100;100322.4;;;;-74
2022/12/23 21:48:34;;;;;;;;;;;;;;;8.23;100;100330.7;;;;-75
2022/12/23 21:53:12;;;;;;;7.8;1.7;;;;;;;;;;;;;-75
2022/12/23 21:53:33;;;;;;;;;;;;;;;8.25;100;100340.3;;;;-75
2022/12/23 21:58:36;;;;;;;;;;;;;;;8.25;100;100345;;;;-73
2022/12/23 22:03:33;;;;;;;;;;;;;;;8.24;100;100359.5;;;;-74
2022/12/23 22:08:33;;;;;;;;;;;;;;;8.27;100;100363.4;;;;-74
2022/12/23 22:13:33;;;;;;;;;;;;;;;8.28;100;100364;;;;-74
2022/12/23 22:18:34;;;;;;;;;;;;;;;8.27;100;100371.9;;;;-75
2022/12/23 22:23:12;;;;;;;4.5;1.4;;;;;;;;;;;;;-75
2022/12/23 22:23:33;;;;;;;;;;;;;;;8.31;100;100376.7;;;;-75
2022/12/23 22:28:34;;;;;;;;;;;;;;;8.32;100;100387.8;;;;-74
2022/12/23 22:33:34;;;;;;;;;;;;;;;8.31;100;100391.5;;;;-75
2022/12/23 22:38:33;;;;;;;;;;;;;;;8.29;100;100400.3;;;;-74
2022/12/23 22:43:35;;;;;;;;;;;;;;;8.3;100;100407.6;;;;-75
2022/12/23 22:48:33;;;;;;;;;;;;;;;8.31;100;100415.1;;;;-81
2022/12/23 22:53:14;;;;;;;6.3;1.6;;;;;;;;;;;;;-78
2022/12/23 22:53:34;;;;;;;;;;;;;;;8.31;100;100420.4;;;;-81
2022/12/23 22:58:34;;;;;;;;;;;;;;;8.34;100;100426.5;;;;-80
2022/12/23 23:03:34;;;;;;;;;;;;;;;8.37;100;100432.5;;;;-80
2022/12/23 23:08:34;;;;;;;;;;;;;;;8.36;100;100444.7;;;;-81
2022/12/23 23:13:35;;;;;;;;;;;;;;;8.34;100;100442.4;;;;-81
2022/12/23 23:18:33;;;;;;;;;;;;;;;8.34;100;100456.6;;;;-81
2022/12/23 23:23:13;;;;;;;19.6;2.4;;;;;;;;;;;;;-79
2022/12/23 23:23:34;;;;;;;;;;;;;;;8.32;100;100465.5;;;;-80
2022/12/23 23:28:33;;;;;;;;;;;;;;;8.29;100;100470.3;;;;-80
2022/12/23 23:33:34;;;;;;;;;;;;;;;8.28;100;100471.7;;;;-80
2022/12/23 23:38:34;;;;;;;;;;;;;;;8.25;100;100480.2;;;;-81
2022/12/23 23:43:34;;;;;;;;;;;;;;;8.25;100;100487;;;;-80
2022/12/23 23:48:33;;;;;;;;;;;;;;;8.23;100;100492.4;;;;-80
2022/12/23 23:53:14;;;;;;;25.8;2.9;;;;;;;;;;;;;-80
2022/12/23 23:53:33;;;;;;;;;;;;;;;8.22;100;100499.4;;;;-80
2022/12/23 23:58:33;;;;;;;;;;;;;;;8.21;100;100510.8;;;;-80
